Time;durP1;ratioP1;P1;durP2;ratioP2;P2;SDS_P1;SDS_P2;PMS_P1;PMS_P2;Temp;Humidity;BMP_temperature;BMP_pressure;BME280_temperature;BME280_humidity;BME280_pressure;Samples;Min_cycle;Max_cycle;Signal;HPM_P1;HPM_P2
2022/01/28 00:01:55;;;;;;;14.90;2.42;;;;;;;;;;5017473;28;20535;-69
2022/01/28 00:04:22;;;;;;;17.98;2.17;;;;;;;;;;5019569;28;20088;-69
2022/01/28 00:06:48;;;;;;;13.85;1.58;;;;;;;;;;5021326;28;20049;-69
2022/01/28 00:09:14;;;;;;;24.83;2.30;;;;;;;;;;5019979;28;20531;-69
2022/01/28 00:11:41;;;;;;;16.00;1.73;;;;;;;;;;5028809;28;20049;-71
2022/01/28 00:14:21;;;;;;;28.60;2.67;;;;;;;;;;5041291;28;20056;-71
2022/01/28 00:17:25;;;;;;;18.95;1.92;;;;;;;;;;5040548;28;20049;-71
2022/01/28 00:38:57;;;;;;;19.65;3.22;;;;;;;;;;5041120;28;20373;-70
2022/01/28 00:41:23;;;;;;;19.70;2.10;;;;;;;;;;5041018;28;20060;-71
2022/01/28 00:43:50;;;;;;;14.05;1.80;;;;;;;;;;5038060;28;20083;-70
2022/01/28 00:46:16;;;;;;;16.40;2.20;;;;;;;;;;5040636;28;20247;-70
2022/01/28 00:48:42;;;;;;;13.88;1.75;;;;;;;;;;5040982;28;20059;-70
2022/01/28 00:51:09;;;;;;;9.27;2.10;;;;;;;;;;5039711;28;20064;-70
2022/01/28 00:53:35;;;;;;;15.65;2.13;;;;;;;;;;5040458;28;20048;-70
2022/01/28 00:56:01;;;;;;;13.35;1.77;;;;;;;;;;5040204;28;20788;-70
2022/01/28 00:58:28;;;;;;;13.13;1.92;;;;;;;;;;5040886;28;20053;-70
2022/01/28 01:00:54;;;;;;;12.30;2.33;;;;;;;;;;5040343;28;20045;-71
2022/01/28 01:03:20;;;;;;;21.65;2.10;;;;;;;;;;5040419;28;20045;-71
2022/01/28 01:05:47;;;;;;;8.50;1.80;;;;;;;;;;5040341;28;20160;-71
2022/01/28 01:08:13;;;;;;;12.32;2.45;;;;;;;;;;5040482;28;20063;-71
2022/01/28 01:10:40;;;;;;;14.40;1.70;;;;;;;;;;5038218;28;20052;-70
2022/01/28 01:13:06;;;;;;;10.38;1.40;;;;;;;;;;5040907;28;20052;-70
2022/01/28 01:15:37;;;;;;;10.70;2.03;;;;;;;;;;5040050;28;20067;-70
2022/01/28 01:18:29;;;;;;;12.90;2.25;;;;;;;;;;5039386;28;20087;-70
2022/01/28 01:23:25;;;;;;;17.40;2.75;;;;;;;;;;5039652;28;20053;-71
2022/01/28 01:28:34;;;;;;;14.15;2.75;;;;;;;;;;5020298;28;20049;-70
2022/01/28 01:34:32;;;;;;;17.58;1.70;;;;;;;;;;5030831;28;20052;-70
2022/01/28 01:36:59;;;;;;;15.98;1.48;;;;;;;;;;5037472;28;20533;-70
2022/01/28 01:39:30;;;;;;;16.77;1.90;;;;;;;;;;5037048;28;20052;-70
2022/01/28 01:42:01;;;;;;;14.55;1.73;;;;;;;;;;5039546;28;20049;-70
2022/01/28 01:52:54;;;;;;;15.27;4.05;;;;;;;;;;5039681;28;20072;-70
2022/01/28 01:55:21;;;;;;;20.08;2.55;;;;;;;;;;5039848;28;20045;-69
2022/01/28 01:57:48;;;;;;;21.45;2.50;;;;;;;;;;5040070;28;20045;-69
2022/01/28 02:00:14;;;;;;;20.88;2.42;;;;;;;;;;5039833;28;20076;-70
2022/01/28 02:02:41;;;;;;;24.88;2.70;;;;;;;;;;5039515;28;20785;-70
2022/01/28 02:05:08;;;;;;;16.75;1.85;;;;;;;;;;5039653;28;20052;-70
2022/01/28 02:07:34;;;;;;;18.38;2.72;;;;;;;;;;5039166;28;20048;-71
2022/01/28 02:10:00;;;;;;;16.75;2.05;;;;;;;;;;5037407;28;20683;-71
2022/01/28 02:12:27;;;;;;;20.33;1.67;;;;;;;;;;5039366;28;20095;-70
2022/01/28 02:14:53;;;;;;;13.35;2.00;;;;;;;;;;5035603;28;20057;-71
2022/01/28 02:17:19;;;;;;;14.18;2.38;;;;;;;;;;5018894;28;20482;-71
2022/01/28 02:19:46;;;;;;;13.85;2.20;;;;;;;;;;5031183;28;20045;-71
2022/01/28 02:22:13;;;;;;;21.70;2.17;;;;;;;;;;5039365;28;20076;-70
2022/01/28 02:24:43;;;;;;;20.17;1.90;;;;;;;;;;5038426;28;20052;-71
2022/01/28 02:27:12;;;;;;;13.45;2.00;;;;;;;;;;5036506;28;20059;-71
2022/01/28 02:29:38;;;;;;;11.75;1.42;;;;;;;;;;5039103;28;20136;-71
2022/01/28 02:32:07;;;;;;;13.75;1.90;;;;;;;;;;5039262;28;20094;-71
2022/01/28 02:34:36;;;;;;;17.13;1.98;;;;;;;;;;5039239;28;20084;-71
2022/01/28 02:37:02;;;;;;;19.90;1.60;;;;;;;;;;5036709;28;20082;-71
2022/01/28 02:39:30;;;;;;;14.68;1.92;;;;;;;;;;5037098;28;20053;-71
2022/01/28 02:42:16;;;;;;;18.25;1.85;;;;;;;;;;5038671;28;20060;-71
2022/01/28 02:44:53;;;;;;;12.15;1.75;;;;;;;;;;5037777;28;20052;-71
2022/01/28 02:47:31;;;;;;;15.73;2.10;;;;;;;;;;5020495;28;20465;-71
2022/01/28 02:49:57;;;;;;;17.90;1.80;;;;;;;;;;5018493;28;20057;-71
2022/01/28 02:52:34;;;;;;;19.55;2.17;;;;;;;;;;5018268;28;20053;-71
2022/01/28 02:55:03;;;;;;;13.40;1.45;;;;;;;;;;5030001;28;20127;-71
2022/01/28 02:57:29;;;;;;;13.18;1.77;;;;;;;;;;5039230;28;20045;-72
2022/01/28 02:59:55;;;;;;;12.75;1.73;;;;;;;;;;5038331;28;20075;-72
2022/01/28 03:02:22;;;;;;;13.73;2.53;;;;;;;;;;5036601;28;20041;-71
2022/01/28 03:05:11;;;;;;;15.45;2.17;;;;;;;;;;5036402;28;20757;-72
2022/01/28 03:07:37;;;;;;;8.65;1.23;;;;;;;;;;5037601;28;20052;-71
2022/01/28 03:10:26;;;;;;;17.67;1.77;;;;;;;;;;5034477;28;20056;-72
2022/01/28 03:13:13;;;;;;;17.17;1.90;;;;;;;;;;5038836;28;20060;-72
2022/01/28 03:15:42;;;;;;;14.40;1.88;;;;;;;;;;5037905;28;20063;-72
2022/01/28 03:18:20;;;;;;;19.52;2.67;;;;;;;;;;5038428;28;20049;-72
2022/01/28 03:23:18;;;;;;;16.05;2.15;;;;;;;;;;5037808;28;20084;-71
2022/01/28 03:25:46;;;;;;;13.93;1.80;;;;;;;;;;5037396;28;20056;-71
2022/01/28 03:28:14;;;;;;;17.52;2.17;;;;;;;;;;5037659;28;20063;-71
2022/01/28 03:30:40;;;;;;;19.57;2.30;;;;;;;;;;5037493;28;20461;-72
2022/01/28 03:33:07;;;;;;;14.38;2.00;;;;;;;;;;5038163;28;20060;-71
2022/01/28 03:35:35;;;;;;;13.63;2.85;;;;;;;;;;5038409;28;20282;-71
2022/01/28 03:38:03;;;;;;;17.48;2.03;;;;;;;;;;5037869;28;20053;-71
2022/01/28 03:40:36;;;;;;;12.68;1.92;;;;;;;;;;5042430;28;20056;-71
2022/01/28 03:43:03;;;;;;;13.35;1.65;;;;;;;;;;5041779;28;20049;-71
2022/01/28 03:45:29;;;;;;;16.77;1.95;;;;;;;;;;5041814;28;20059;-72
2022/01/28 03:47:56;;;;;;;18.13;1.73;;;;;;;;;;5041899;28;20745;-72
2022/01/28 03:50:22;;;;;;;13.98;1.58;;;;;;;;;;5042253;28;20056;-71
2022/01/28 03:52:49;;;;;;;14.80;1.98;;;;;;;;;;5041493;28;20331;-71
2022/01/28 03:55:16;;;;;;;9.73;1.42;;;;;;;;;;5041775;28;20049;-70
2022/01/28 03:57:42;;;;;;;10.25;1.83;;;;;;;;;;5041227;28;20741;-71
2022/01/28 04:00:10;;;;;;;7.32;1.05;;;;;;;;;;5040776;28;20064;-71
2022/01/28 04:02:40;;;;;;;11.07;1.75;;;;;;;;;;5041702;28;20079;-71
2022/01/28 04:13:25;;;;;;;13.18;1.80;;;;;;;;;;5040874;28;20427;-71
2022/01/28 04:16:15;;;;;;;14.85;1.38;;;;;;;;;;5040675;28;20049;-70
2022/01/28 04:18:38;;;;;;;6.90;1.02;;;;;;;;;;5041120;28;20052;-70
2022/01/28 04:21:04;;;;;;;16.50;1.90;;;;;;;;;;5040687;28;20063;-70
2022/01/28 04:23:30;;;;;;;13.63;1.90;;;;;;;;;;5041585;28;20589;-71
2022/01/28 04:25:57;;;;;;;17.77;2.13;;;;;;;;;;5041334;28;20052;-70
2022/01/28 04:28:23;;;;;;;10.05;1.30;;;;;;;;;;5041678;28;20063;-71
2022/01/28 04:30:49;;;;;;;23.00;2.40;;;;;;;;;;5040743;28;20067;-70
2022/01/28 04:33:16;;;;;;;20.42;2.00;;;;;;;;;;5041378;28;20599;-70
2022/01/28 04:35:45;;;;;;;9.82;1.27;;;;;;;;;;5040624;28;20406;-70
2022/01/28 04:41:53;;;;;;;16.92;2.00;;;;;;;;;;5041141;28;20045;-70
2022/01/28 04:43:44;;;;;;;14.95;1.50;;;;;;;;;;5026977;28;20100;-70
2022/01/28 04:46:21;;;;;;;11.60;2.05;;;;;;;;;;5041229;28;20075;-70
2022/01/28 04:48:56;;;;;;;9.98;1.55;;;;;;;;;;5040230;28;20049;-70
2022/01/28 04:51:50;;;;;;;12.90;1.50;;;;;;;;;;5040812;28;20482;-71
2022/01/28 04:54:47;;;;;;;25.85;2.78;;;;;;;;;;5039335;28;20561;-70
2022/01/28 04:57:31;;;;;;;15.88;1.85;;;;;;;;;;5037537;28;20178;-70
2022/01/28 05:00:12;;;;;;;19.08;2.33;;;;;;;;;;5018017;28;20075;-70
2022/01/28 05:03:52;;;;;;;16.40;1.50;;;;;;;;;;5027650;28;20197;-70
2022/01/28 05:14:13;;;;;;;14.88;2.47;;;;;;;;;;5023533;28;20058;-71
2022/01/28 05:26:01;;;;;;;15.05;1.67;;;;;;;;;;5022178;28;20068;-71
2022/01/28 05:27:50;;;;;;;15.15;1.58;;;;;;;;;;5037326;28;20045;-71
2022/01/28 05:30:17;;;;;;;13.93;1.70;;;;;;;;;;5039664;28;20055;-71
2022/01/28 05:32:43;;;;;;;10.32;1.40;;;;;;;;;;5037518;28;20080;-71
2022/01/28 05:35:09;;;;;;;12.13;2.10;;;;;;;;;;5038583;28;20176;-70
2022/01/28 05:37:36;;;;;;;10.65;1.55;;;;;;;;;;5039141;28;20064;-71
2022/01/28 05:40:02;;;;;;;13.02;2.38;;;;;;;;;;5038841;28;20045;-71
2022/01/28 05:42:29;;;;;;;15.93;2.25;;;;;;;;;;5038993;28;20458;-71
2022/01/28 05:44:55;;;;;;;11.40;1.20;;;;;;;;;;5038228;28;20080;-70
2022/01/28 05:47:24;;;;;;;14.77;2.17;;;;;;;;;;5038989;28;20052;-71
2022/01/28 05:49:50;;;;;;;;;;;;;;;;;;5038404;28;20076;-71
2022/01/28 05:52:17;;;;;;;11.18;2.17;;;;;;;;;;5038956;28;19921;-70
2022/01/28 05:54:43;;;;;;;10.15;1.67;;;;;;;;;;5037331;28;20044;-70
2022/01/28 05:57:09;;;;;;;18.35;2.05;;;;;;;;;;5037499;28;20049;-71
2022/01/28 05:59:36;;;;;;;18.42;2.05;;;;;;;;;;5037989;28;20075;-71
2022/01/28 06:02:02;;;;;;;16.30;1.77;;;;;;;;;;5033619;28;20568;-71
2022/01/28 06:04:29;;;;;;;13.40;1.90;;;;;;;;;;5020592;28;20049;-70
2022/01/28 06:06:55;;;;;;;17.45;2.20;;;;;;;;;;5018951;28;20053;-70
2022/01/28 06:09:21;;;;;;;12.50;1.73;;;;;;;;;;5031404;28;20049;-71
2022/01/28 06:11:47;;;;;;;20.60;2.78;;;;;;;;;;5037942;28;20053;-70
2022/01/28 06:14:14;;;;;;;12.30;1.80;;;;;;;;;;5038549;28;20049;-70
2022/01/28 06:16:41;;;;;;;18.38;2.55;;;;;;;;;;5038197;28;20048;-70
2022/01/28 06:19:07;;;;;;;16.55;2.00;;;;;;;;;;5036192;28;20647;-71
2022/01/28 06:21:33;;;;;;;8.65;1.52;;;;;;;;;;5037888;28;20070;-70
2022/01/28 06:23:59;;;;;;;15.23;1.90;;;;;;;;;;5038208;28;20041;-71
2022/01/28 06:26:26;;;;;;;10.45;1.92;;;;;;;;;;5037893;28;20074;-72
2022/01/28 06:28:53;;;;;;;16.73;2.08;;;;;;;;;;5027126;28;20050;-71
2022/01/28 06:31:19;;;;;;;19.10;2.50;;;;;;;;;;5017796;28;20053;-71
2022/01/28 06:33:47;;;;;;;14.50;1.70;;;;;;;;;;5021796;28;20049;-70
2022/01/28 06:36:14;;;;;;;15.00;1.85;;;;;;;;;;5037186;28;20049;-71
2022/01/28 06:38:40;;;;;;;17.40;1.60;;;;;;;;;;5037905;28;20056;-71
2022/01/28 06:41:06;;;;;;;10.18;1.58;;;;;;;;;;5039195;28;20421;-71
2022/01/28 06:43:37;;;;;;;10.13;2.00;;;;;;;;;;5034255;28;20049;-71
2022/01/28 06:46:04;;;;;;;17.58;2.40;;;;;;;;;;5024891;28;20053;-70
2022/01/28 06:48:30;;;;;;;16.38;2.78;;;;;;;;;;5039619;28;20148;-71
2022/01/28 06:50:56;;;;;;;16.45;3.25;;;;;;;;;;5037759;28;20052;-71
2022/01/28 06:53:23;;;;;;;13.95;2.13;;;;;;;;;;5038602;28;20061;-71
2022/01/28 06:55:49;;;;;;;14.40;2.53;;;;;;;;;;5035145;28;20422;-71
2022/01/28 06:58:16;;;;;;;13.02;2.28;;;;;;;;;;5037728;28;20148;-71
2022/01/28 07:00:42;;;;;;;12.75;2.25;;;;;;;;;;5037087;28;20049;-71
2022/01/28 07:03:09;;;;;;;13.32;1.70;;;;;;;;;;5037670;28;20080;-70
2022/01/28 07:05:37;;;;;;;16.83;1.65;;;;;;;;;;5034382;28;20056;-70
2022/01/28 07:08:03;;;;;;;13.45;2.22;;;;;;;;;;5025233;28;20672;-70
2022/01/28 07:10:30;;;;;;;13.85;2.17;;;;;;;;;;5015885;28;20740;-70
2022/01/28 07:12:56;;;;;;;18.67;2.08;;;;;;;;;;5020838;28;20045;-70
2022/01/28 07:15:24;;;;;;;20.92;1.92;;;;;;;;;;5019572;28;20053;-70
2022/01/28 07:17:52;;;;;;;22.75;2.42;;;;;;;;;;5038155;28;20051;-70
2022/01/28 07:20:23;;;;;;;10.52;1.77;;;;;;;;;;5037818;28;20145;-70
2022/01/28 07:22:49;;;;;;;14.50;2.33;;;;;;;;;;5037624;28;20087;-70
2022/01/28 07:25:16;;;;;;;17.50;3.00;;;;;;;;;;5038186;28;20052;-69
2022/01/28 07:27:42;;;;;;;19.30;2.25;;;;;;;;;;5037955;28;20605;-70
2022/01/28 07:30:09;;;;;;;17.52;1.77;;;;;;;;;;5032907;28;20052;-70
2022/01/28 07:32:35;;;;;;;15.63;1.70;;;;;;;;;;5036689;28;20087;-70
2022/01/28 07:35:02;;;;;;;16.90;2.17;;;;;;;;;;5037906;28;20067;-70
2022/01/28 07:37:28;;;;;;;10.00;1.98;;;;;;;;;;5038315;28;20049;-70
2022/01/28 07:39:55;;;;;;;14.75;2.13;;;;;;;;;;5038430;28;20859;-70
2022/01/28 07:42:22;;;;;;;15.18;1.95;;;;;;;;;;5037577;28;20464;-71
2022/01/28 07:44:48;;;;;;;15.23;2.45;;;;;;;;;;5037925;28;20045;-70
2022/01/28 07:47:15;;;;;;;20.55;1.75;;;;;;;;;;5037891;28;20152;-70
2022/01/28 07:49:41;;;;;;;12.20;2.22;;;;;;;;;;5038018;28;20053;-70
2022/01/28 07:52:07;;;;;;;13.50;2.40;;;;;;;;;;5038204;28;20535;-70
2022/01/28 07:54:34;;;;;;;10.05;3.15;;;;;;;;;;5038474;28;20056;-70
2022/01/28 07:57:01;;;;;;;19.77;3.50;;;;;;;;;;5037152;28;20045;-70
2022/01/28 07:59:27;;;;;;;15.20;2.47;;;;;;;;;;5038758;28;20486;-70
2022/01/28 08:01:54;;;;;;;19.55;2.95;;;;;;;;;;5026051;28;20045;-70
2022/01/28 08:04:21;;;;;;;14.43;2.85;;;;;;;;;;5035319;28;20052;-70
2022/01/28 08:06:47;;;;;;;17.98;2.30;;;;;;;;;;5038626;28;20064;-71
2022/01/28 08:09:13;;;;;;;16.92;2.75;;;;;;;;;;5036080;28;20053;-70
2022/01/28 08:11:40;;;;;;;16.70;2.50;;;;;;;;;;5035757;28;20056;-70
2022/01/28 08:14:06;;;;;;;14.95;2.67;;;;;;;;;;5036587;28;20072;-70
2022/01/28 08:16:34;;;;;;;11.95;2.55;;;;;;;;;;5024273;28;20053;-70
2022/01/28 08:19:01;;;;;;;22.48;2.83;;;;;;;;;;5037243;28;20156;-70
2022/01/28 08:21:27;;;;;;;15.68;2.78;;;;;;;;;;5035695;28;20041;-70
2022/01/28 08:23:53;;;;;;;19.70;2.15;;;;;;;;;;5033687;28;20406;-70
2022/01/28 08:26:21;;;;;;;13.75;2.25;;;;;;;;;;5041041;28;20095;-70
2022/01/28 08:28:48;;;;;;;20.13;3.80;;;;;;;;;;5041617;28;20712;-70
2022/01/28 08:31:14;;;;;;;22.20;3.10;;;;;;;;;;5041312;28;20057;-70
2022/01/28 08:33:41;;;;;;;21.05;3.15;;;;;;;;;;5040914;28;20057;-70
2022/01/28 08:36:07;;;;;;;14.65;2.65;;;;;;;;;;5041016;28;20053;-70
2022/01/28 08:38:44;;;;;;;34.55;3.47;;;;;;;;;;5041388;28;20078;-70
2022/01/28 08:41:12;;;;;;;14.38;2.75;;;;;;;;;;5040914;28;20048;-70
2022/01/28 08:43:39;;;;;;;;;;;;;;;;;;5040930;28;20049;-70
2022/01/28 08:46:05;;;;;;;24.63;3.38;;;;;;;;;;5056496;28;20682;-70
2022/01/28 08:48:32;;;;;;;14.05;2.83;;;;;;;;;;5040647;28;20052;-70
2022/01/28 08:50:58;;;;;;;17.52;2.78;;;;;;;;;;5040654;28;20872;-70
2022/01/28 08:53:25;;;;;;;18.45;2.65;;;;;;;;;;5039607;28;20063;-70
2022/01/28 08:55:51;;;;;;;14.05;2.20;;;;;;;;;;5040394;28;20049;-70
2022/01/28 08:58:21;;;;;;;16.30;2.55;;;;;;;;;;5034080;28;20088;-70
2022/01/28 09:00:48;;;;;;;15.60;2.55;;;;;;;;;;5030249;28;20046;-70
2022/01/28 09:03:15;;;;;;;11.23;3.03;;;;;;;;;;5033521;28;20060;-70
2022/01/28 09:05:42;;;;;;;20.15;3.28;;;;;;;;;;5036735;28;20487;-70
2022/01/28 09:08:09;;;;;;;18.33;2.78;;;;;;;;;;5029072;28;20049;-70
2022/01/28 09:10:38;;;;;;;20.30;3.05;;;;;;;;;;5038523;28;20142;-70
2022/01/28 09:15:39;;;;;;;9.13;2.28;;;;;;;;;;5040645;28;20049;-70
2022/01/28 09:18:07;;;;;;;12.85;2.85;;;;;;;;;;5039989;28;20061;-70
2022/01/28 09:20:33;;;;;;;16.35;2.40;;;;;;;;;;5036723;28;20522;-70
2022/01/28 09:23:00;;;;;;;12.27;2.42;;;;;;;;;;5039762;28;20609;-70
2022/01/28 09:25:27;;;;;;;17.05;2.50;;;;;;;;;;5038315;28;20862;-70
2022/01/28 09:27:53;;;;;;;14.38;2.70;;;;;;;;;;5024165;28;20049;-70
2022/01/28 09:30:20;;;;;;;19.13;2.75;;;;;;;;;;5035972;28;20056;-70
2022/01/28 09:32:47;;;;;;;15.82;2.70;;;;;;;;;;5035520;28;20052;-70
2022/01/28 09:35:13;;;;;;;23.75;2.60;;;;;;;;;;5037244;28;20052;-70
2022/01/28 09:37:40;;;;;;;14.23;2.38;;;;;;;;;;5037520;28;20053;-71
2022/01/28 09:40:06;;;;;;;14.77;3.00;;;;;;;;;;5038610;28;20053;-70
2022/01/28 09:42:37;;;;;;;17.15;2.88;;;;;;;;;;5039285;28;20048;-71
2022/01/28 09:45:04;;;;;;;20.88;3.72;;;;;;;;;;5039079;28;20814;-70
2022/01/28 09:47:31;;;;;;;17.13;3.28;;;;;;;;;;5038999;28;20056;-70
2022/01/28 09:49:58;;;;;;;13.80;2.40;;;;;;;;;;5039090;28;20557;-70
2022/01/28 09:52:24;;;;;;;15.45;2.72;;;;;;;;;;5038387;28;20063;-70
2022/01/28 09:54:51;;;;;;;15.48;2.58;;;;;;;;;;5038735;28;20052;-70
2022/01/28 09:57:19;;;;;;;16.95;2.65;;;;;;;;;;5039446;28;20141;-70
2022/01/28 09:59:45;;;;;;;18.77;2.42;;;;;;;;;;5039398;28;20096;-70
2022/01/28 10:02:12;;;;;;;17.05;2.95;;;;;;;;;;5039839;28;20325;-70
2022/01/28 10:04:39;;;;;;;22.40;2.85;;;;;;;;;;5039010;28;20055;-69
2022/01/28 10:07:15;;;;;;;20.20;3.15;;;;;;;;;;5039684;28;20049;-70
2022/01/28 10:09:59;;;;;;;10.75;2.20;;;;;;;;;;5036503;28;20052;-69
2022/01/28 10:12:51;;;;;;;24.17;2.65;;;;;;;;;;5039124;28;20061;-69
2022/01/28 10:15:28;;;;;;;17.00;2.58;;;;;;;;;;5038680;28;20469;-70
2022/01/28 10:17:55;;;;;;;19.83;3.40;;;;;;;;;;5038799;28;20642;-70
2022/01/28 10:20:22;;;;;;;16.25;2.88;;;;;;;;;;5038935;28;20458;-70
2022/01/28 10:22:50;;;;;;;15.93;3.20;;;;;;;;;;5039562;28;20049;-70
2022/01/28 10:25:27;;;;;;;20.87;3.00;;;;;;;;;;5039823;28;20076;-70
2022/01/28 10:28:03;;;;;;;12.27;2.03;;;;;;;;;;5034954;28;20053;-70
2022/01/28 10:30:34;;;;;;;17.38;2.58;;;;;;;;;;5037830;28;20079;-70
2022/01/28 10:33:21;;;;;;;18.98;3.03;;;;;;;;;;5038237;28;20108;-70
2022/01/28 10:35:48;;;;;;;18.27;3.80;;;;;;;;;;5038445;28;20061;-70
2022/01/28 10:38:31;;;;;;;15.63;1.85;;;;;;;;;;5031781;28;20052;-70
2022/01/28 10:41:14;;;;;;;20.08;2.88;;;;;;;;;;5019157;28;20418;-69
2022/01/28 10:43:41;;;;;;;18.70;2.22;;;;;;;;;;5018547;28;20419;-70
2022/01/28 10:46:07;;;;;;;15.75;1.70;;;;;;;;;;5019203;28;20064;-69
2022/01/28 10:48:54;;;;;;;17.02;2.25;;;;;;;;;;5033996;28;20614;-70
2022/01/28 10:51:22;;;;;;;13.48;2.30;;;;;;;;;;5038345;28;20079;-70
2022/01/28 10:54:13;;;;;;;26.67;2.90;;;;;;;;;;5038132;28;20051;-70
2022/01/28 10:56:54;;;;;;;14.73;2.72;;;;;;;;;;5036578;28;20052;-70
2022/01/28 10:59:21;;;;;;;17.90;1.90;;;;;;;;;;5038998;28;20051;-70
2022/01/28 11:01:48;;;;;;;25.88;3.67;;;;;;;;;;5032529;28;20458;-70
2022/01/28 11:04:15;;;;;;;18.95;2.00;;;;;;;;;;5019814;28;20447;-70
2022/01/28 11:06:43;;;;;;;15.63;1.95;;;;;;;;;;5019816;28;20049;-70
2022/01/28 11:09:11;;;;;;;25.38;3.78;;;;;;;;;;5024957;28;20049;-70
2022/01/28 11:11:38;;;;;;;17.73;2.15;;;;;;;;;;5028178;28;20060;-70
2022/01/28 11:14:05;;;;;;;22.83;3.20;;;;;;;;;;5036624;28;20053;-70
2022/01/28 11:16:32;;;;;;;13.82;1.85;;;;;;;;;;5038308;28;20041;-70
2022/01/28 11:18:59;;;;;;;14.40;1.90;;;;;;;;;;5037243;28;20103;-70
2022/01/28 11:21:33;;;;;;;18.75;2.25;;;;;;;;;;5035219;28;20053;-70
2022/01/28 11:24:18;;;;;;;16.95;1.60;;;;;;;;;;5026561;28;20037;-70
2022/01/28 11:26:44;;;;;;;15.10;2.10;;;;;;;;;;5031004;28;20732;-70
2022/01/28 11:29:21;;;;;;;17.55;2.10;;;;;;;;;;5030601;28;20062;-70
2022/01/28 11:31:52;;;;;;;14.77;2.50;;;;;;;;;;5037393;28;20098;-70
2022/01/28 11:34:21;;;;;;;18.25;2.10;;;;;;;;;;5038656;28;20812;-69
2022/01/28 11:36:48;;;;;;;13.07;2.00;;;;;;;;;;5038212;28;20056;-69
2022/01/28 11:39:19;;;;;;;14.60;2.17;;;;;;;;;;5037898;28;20055;-70
2022/01/28 11:41:58;;;;;;;9.07;1.38;;;;;;;;;;5037978;28;20063;-70
2022/01/28 11:44:45;;;;;;;13.18;1.98;;;;;;;;;;5035903;28;20049;-70
2022/01/28 11:47:20;;;;;;;11.30;1.65;;;;;;;;;;5029531;28;20045;-70
2022/01/28 11:49:54;;;;;;;12.55;1.70;;;;;;;;;;5034239;28;20059;-69
2022/01/28 11:52:29;;;;;;;17.92;2.05;;;;;;;;;;5038076;28;20068;-69
2022/01/28 11:55:16;;;;;;;17.33;2.30;;;;;;;;;;5038015;28;20481;-70
2022/01/28 11:58:01;;;;;;;18.95;1.77;;;;;;;;;;5022019;28;20064;-69
2022/01/28 12:00:35;;;;;;;18.85;3.70;;;;;;;;;;5022523;28;20055;-70
2022/01/28 12:03:17;;;;;;;17.33;2.30;;;;;;;;;;5022118;28;20259;-69
2022/01/28 12:05:43;;;;;;;14.32;2.30;;;;;;;;;;5022835;28;20115;-69
2022/01/28 12:08:10;;;;;;;13.13;1.70;;;;;;;;;;5022842;28;20417;-70
2022/01/28 12:10:41;;;;;;;12.63;1.52;;;;;;;;;;5021788;28;20776;-69
2022/01/28 12:13:12;;;;;;;10.10;1.50;;;;;;;;;;5021135;28;20060;-70
2022/01/28 12:16:02;;;;;;;9.98;1.40;;;;;;;;;;5020417;28;20533;-70
2022/01/28 12:18:48;;;;;;;12.35;1.63;;;;;;;;;;5035598;28;20053;-70
2022/01/28 12:21:16;;;;;;;18.15;2.10;;;;;;;;;;5040344;28;20068;-69
2022/01/28 12:23:44;;;;;;;13.93;2.03;;;;;;;;;;5040558;28;20049;-70
2022/01/28 12:26:13;;;;;;;9.57;1.83;;;;;;;;;;5035730;28;20068;-71
2022/01/28 12:28:41;;;;;;;14.55;1.73;;;;;;;;;;5028576;28;20045;-70
2022/01/28 12:31:12;;;;;;;12.02;1.85;;;;;;;;;;5040908;28;20064;-70
2022/01/28 12:33:43;;;;;;;10.85;1.70;;;;;;;;;;5040973;28;20184;-71
2022/01/28 12:36:10;;;;;;;11.82;2.08;;;;;;;;;;5041033;28;20121;-71
2022/01/28 12:38:42;;;;;;;11.03;1.83;;;;;;;;;;5036803;28;20051;-70
2022/01/28 12:41:09;;;;;;;19.08;1.95;;;;;;;;;;5020770;28;20053;-71
2022/01/28 12:43:39;;;;;;;19.92;2.38;;;;;;;;;;5036995;28;20045;-69
2022/01/28 12:46:05;;;;;;;11.15;2.33;;;;;;;;;;5041666;28;20151;-70
2022/01/28 12:48:32;;;;;;;20.48;2.35;;;;;;;;;;5041494;28;20239;-71
2022/01/28 12:50:58;;;;;;;14.95;2.70;;;;;;;;;;5041046;28;20076;-70
2022/01/28 12:53:25;;;;;;;19.40;2.45;;;;;;;;;;5040094;28;20053;-70
2022/01/28 12:55:52;;;;;;;14.23;1.65;;;;;;;;;;5040731;28;20574;-70
2022/01/28 12:58:28;;;;;;;14.02;2.28;;;;;;;;;;5041106;28;20057;-70
2022/01/28 13:01:01;;;;;;;14.20;1.45;;;;;;;;;;5040466;28;20129;-70
2022/01/28 13:03:34;;;;;;;18.13;1.58;;;;;;;;;;5039568;28;20118;-70
2022/01/28 13:06:22;;;;;;;8.55;1.58;;;;;;;;;;5041185;28;20053;-70
2022/01/28 13:08:49;;;;;;;12.23;2.25;;;;;;;;;;5040142;28;20489;-70
2022/01/28 13:11:15;;;;;;;15.52;2.83;;;;;;;;;;5037738;28;20053;-70
2022/01/28 13:13:52;;;;;;;11.18;1.75;;;;;;;;;;5038344;28;20816;-70
2022/01/28 13:16:29;;;;;;;16.95;2.70;;;;;;;;;;5040835;28;20049;-70
2022/01/28 13:18:56;;;;;;;15.40;2.47;;;;;;;;;;5039101;28;20517;-70
2022/01/28 13:21:23;;;;;;;10.70;2.00;;;;;;;;;;5039212;28;20293;-69
2022/01/28 13:24:02;;;;;;;11.30;2.13;;;;;;;;;;5039469;28;20474;-69
2022/01/28 13:26:28;;;;;;;15.63;2.50;;;;;;;;;;5040836;28;20433;-69
2022/01/28 13:29:07;;;;;;;9.00;1.50;;;;;;;;;;5039230;28;20051;-69
2022/01/28 13:31:34;;;;;;;10.85;1.70;;;;;;;;;;5039815;28;20051;-69
2022/01/28 13:34:02;;;;;;;12.00;1.63;;;;;;;;;;5039764;28;20051;-69
2022/01/28 13:36:42;;;;;;;8.55;1.98;;;;;;;;;;5037646;28;20160;-69
2022/01/28 13:39:20;;;;;;;15.10;1.70;;;;;;;;;;5030192;28;20083;-70
2022/01/28 13:41:50;;;;;;;9.97;1.47;;;;;;;;;;5024728;28;20048;-69
2022/01/28 13:44:21;;;;;;;9.55;1.75;;;;;;;;;;5035539;28;20762;-69
2022/01/28 13:46:54;;;;;;;9.40;1.67;;;;;;;;;;5035900;28;20053;-69
2022/01/28 13:49:26;;;;;;;13.40;2.08;;;;;;;;;;5036314;28;20045;-69
2022/01/28 13:51:53;;;;;;;14.45;1.75;;;;;;;;;;5039224;28;20045;-69
2022/01/28 13:54:29;;;;;;;10.00;2.35;;;;;;;;;;5035530;28;20739;-69
2022/01/28 13:57:00;;;;;;;9.20;1.45;;;;;;;;;;5039180;28;20479;-68
2022/01/28 13:59:29;;;;;;;22.63;2.08;;;;;;;;;;5039902;28;20646;-69
2022/01/28 14:01:59;;;;;;;12.30;1.58;;;;;;;;;;5038984;28;20063;-69
2022/01/28 14:04:32;;;;;;;12.55;1.95;;;;;;;;;;5040210;28;20308;-69
2022/01/28 14:07:18;;;;;;;13.48;2.00;;;;;;;;;;5038790;28;20063;-68
2022/01/28 14:09:58;;;;;;;11.52;1.77;;;;;;;;;;5036944;28;20506;-70
2022/01/28 14:12:33;;;;;;;16.52;2.20;;;;;;;;;;5039812;28;20049;-69
2022/01/28 14:15:10;;;;;;;8.38;1.35;;;;;;;;;;5039641;28;20203;-69
2022/01/28 14:17:38;;;;;;;9.57;1.93;;;;;;;;;;5039139;28;20052;-68
2022/01/28 14:20:05;;;;;;;17.92;2.00;;;;;;;;;;5037401;28;20045;-69
2022/01/28 14:22:32;;;;;;;9.82;1.83;;;;;;;;;;5035900;28;20052;-69
2022/01/28 14:24:58;;;;;;;12.75;1.85;;;;;;;;;;5039381;28;20141;-68
2022/01/28 14:30:35;;;;;;;16.85;2.47;;;;;;;;;;5037222;28;20053;-69
2022/01/28 14:32:50;;;;;;;14.90;2.03;;;;;;;;;;5018385;28;20059;-70
2022/01/28 14:35:17;;;;;;;7.90;2.20;;;;;;;;;;5023146;28;20060;-69
2022/01/28 14:37:44;;;;;;;9.52;2.15;;;;;;;;;;5030702;28;20046;-69
2022/01/28 14:40:12;;;;;;;13.05;2.20;;;;;;;;;;5018478;28;20041;-69
2022/01/28 14:42:39;;;;;;;22.92;2.60;;;;;;;;;;5035667;28;20489;-68
2022/01/28 14:45:05;;;;;;;11.85;2.80;;;;;;;;;;5034306;28;20045;-69
2022/01/28 14:47:32;;;;;;;14.70;2.67;;;;;;;;;;5021583;28;20074;-68
2022/01/28 14:49:58;;;;;;;9.48;2.08;;;;;;;;;;5023832;28;20741;-70
2022/01/28 14:52:29;;;;;;;11.35;2.00;;;;;;;;;;5018721;28;20045;-69
2022/01/28 14:54:56;;;;;;;15.70;1.95;;;;;;;;;;5019975;28;20093;-68
2022/01/28 14:57:25;;;;;;;10.88;1.90;;;;;;;;;;5020295;28;20684;-68
2022/01/28 14:59:51;;;;;;;13.35;1.70;;;;;;;;;;5032450;28;20128;-69
2022/01/28 15:02:22;;;;;;;16.10;2.33;;;;;;;;;;5024617;28;20048;-69
2022/01/28 15:04:59;;;;;;;13.60;2.83;;;;;;;;;;5027179;28;20120;-68
2022/01/28 15:07:28;;;;;;;20.35;3.47;;;;;;;;;;5028826;28;20690;-69
2022/01/28 15:09:56;;;;;;;13.30;2.85;;;;;;;;;;5019891;28;20836;-68
2022/01/28 15:12:23;;;;;;;19.83;2.90;;;;;;;;;;5020363;28;20044;-69
2022/01/28 15:14:49;;;;;;;14.88;2.75;;;;;;;;;;5022182;28;20049;-69
2022/01/28 15:17:19;;;;;;;10.77;2.78;;;;;;;;;;5017625;28;20049;-68
2022/01/28 15:19:46;;;;;;;13.23;3.95;;;;;;;;;;5020482;28;20051;-69
2022/01/28 15:22:13;;;;;;;10.13;2.78;;;;;;;;;;5023060;28;20049;-69
2022/01/28 15:24:39;;;;;;;14.75;3.28;;;;;;;;;;5022319;28;20099;-69
2022/01/28 15:27:06;;;;;;;16.42;4.10;;;;;;;;;;5017309;28;20050;-70
2022/01/28 15:29:45;;;;;;;15.27;3.70;;;;;;;;;;5021024;28;20053;-69
2022/01/28 15:37:32;;;;;;;23.80;3.67;;;;;;;;;;5021801;28;20053;-69
2022/01/28 15:39:58;;;;;;;18.00;4.18;;;;;;;;;;5025694;28;20044;-69
2022/01/28 15:42:25;;;;;;;12.73;2.90;;;;;;;;;;5041479;28;20136;-69
2022/01/28 15:44:51;;;;;;;18.23;3.88;;;;;;;;;;5041880;28;20075;-69
2022/01/28 15:47:18;;;;;;;16.45;3.83;;;;;;;;;;5032229;28;20686;-69
2022/01/28 15:49:44;;;;;;;16.75;4.35;;;;;;;;;;5025193;28;20057;-69
2022/01/28 15:52:12;;;;;;;17.25;4.25;;;;;;;;;;5041702;28;20053;-69
2022/01/28 15:54:38;;;;;;;17.63;4.80;;;;;;;;;;5041946;28;20885;-69
2022/01/28 15:57:05;;;;;;;13.75;3.95;;;;;;;;;;5039281;28;20088;-69
2022/01/28 15:59:36;;;;;;;14.88;5.15;;;;;;;;;;5026805;28;20581;-69
2022/01/28 16:02:03;;;;;;;12.88;4.32;;;;;;;;;;5031156;28;20700;-70
2022/01/28 16:04:29;;;;;;;16.55;5.32;;;;;;;;;;5038016;28;20765;-69